createdAt,value
2019-04-14T00:00:57.576Z,17.13
2019-04-14T00:03:28.738Z,18.13
2019-04-14T00:06:00.494Z,26.40
2019-04-14T00:08:30.608Z,20.30
2019-04-14T00:11:04.000Z,18.10
2019-04-14T00:13:34.867Z,19.33
2019-04-14T00:16:05.336Z,18.00
2019-04-14T00:18:35.894Z,19.03
2019-04-14T00:21:06.499Z,21.07
2019-04-14T00:23:36.964Z,18.83
2019-04-14T00:26:24.932Z,21.10
2019-04-14T00:28:55.615Z,20.10
2019-04-14T00:31:26.257Z,21.17
2019-04-14T00:33:58.494Z,20.37
2019-04-14T00:36:45.944Z,17.80
2019-04-14T00:39:20.493Z,17.87
2019-04-14T00:41:55.537Z,18.10
2019-04-14T00:44:39.466Z,20.13
2019-04-14T00:47:20.223Z,18.60
2019-04-14T00:49:50.786Z,21.23
2019-04-14T00:52:21.163Z,20.17
2019-04-14T00:54:50.655Z,19.80
2019-04-14T00:57:20.239Z,20.40
2019-04-14T00:59:50.781Z,18.50
2019-04-14T01:02:21.108Z,21.03
2019-04-14T01:04:51.313Z,20.47
2019-04-14T01:07:21.741Z,21.37
2019-04-14T01:09:51.204Z,21.00
2019-04-14T01:12:21.388Z,18.37
2019-04-14T01:14:51.769Z,20.43
2019-04-14T01:17:24.375Z,19.47
2019-04-14T01:19:54.824Z,22.60
2019-04-14T01:22:24.919Z,19.23
2019-04-14T01:24:55.311Z,20.10
2019-04-14T01:27:25.649Z,20.03
2019-04-14T01:29:55.928Z,22.27
2019-04-14T01:32:26.150Z,25.57
2019-04-14T01:34:56.963Z,19.67
2019-04-14T01:37:26.916Z,21.97
2019-04-14T01:39:56.757Z,19.93
2019-04-14T01:42:26.774Z,19.70
2019-04-14T01:44:57.041Z,19.40
2019-04-14T01:47:27.218Z,22.50
2019-04-14T01:49:57.344Z,19.30
2019-04-14T01:52:29.621Z,21.40
2019-04-14T01:55:06.993Z,21.43
2019-04-14T01:57:39.213Z,20.87
2019-04-14T02:00:11.968Z,21.13
2019-04-14T02:02:44.695Z,23.20
2019-04-14T02:05:14.609Z,22.10
2019-04-14T02:07:45.176Z,20.13
2019-04-14T02:10:17.256Z,19.93
2019-04-14T02:12:47.423Z,22.47
2019-04-14T02:15:17.941Z,21.10
2019-04-14T02:17:48.169Z,22.47
2019-04-14T02:20:18.634Z,19.80
2019-04-14T02:22:48.455Z,24.50
2019-04-14T02:25:20.919Z,20.97
2019-04-14T02:27:51.491Z,22.63
2019-04-14T02:30:30.379Z,24.07
2019-04-14T02:33:24.049Z,24.17
2019-04-14T02:35:55.917Z,21.43
2019-04-14T02:38:33.930Z,21.30
2019-04-14T02:41:18.867Z,21.90
2019-04-14T02:43:31.938Z,20.93
2019-04-14T02:51:01.844Z,22.07
2019-04-14T02:53:49.865Z,21.67
2019-04-14T02:56:23.859Z,24.03
2019-04-14T02:58:53.222Z,20.73
2019-04-14T03:03:50.691Z,22.83
2019-04-14T03:06:26.046Z,20.30
2019-04-14T03:09:24.239Z,23.50
2019-04-14T03:11:47.595Z,19.77
2019-04-14T03:14:23.427Z,20.67
2019-04-14T03:17:07.531Z,20.33
2019-04-14T03:19:35.593Z,20.53
2019-04-14T03:22:18.379Z,18.53
2019-04-14T03:24:39.321Z,19.07
2019-04-14T03:27:31.265Z,21.30
2019-04-14T03:30:11.556Z,20.80
2019-04-14T03:32:57.952Z,20.20
2019-04-14T03:35:19.715Z,22.20
2019-04-14T03:40:01.385Z,20.77
2019-04-14T03:45:04.143Z,21.60
2019-04-14T03:47:31.558Z,22.57
2019-04-14T03:50:11.988Z,19.30
2019-04-14T03:52:53.211Z,22.77
2019-04-14T03:55:01.182Z,22.37
2019-04-14T03:57:17.275Z,22.80
2019-04-14T03:59:49.990Z,21.13
2019-04-14T04:02:20.493Z,24.13
2019-04-14T04:04:51.189Z,21.40
2019-04-14T04:07:21.432Z,21.90
2019-04-14T04:09:52.558Z,21.03
2019-04-14T04:12:22.568Z,20.97
2019-04-14T04:14:53.077Z,21.60
2019-04-14T04:17:25.417Z,21.77
2019-04-14T04:20:08.917Z,22.23
2019-04-14T04:22:43.454Z,24.50
2019-04-14T04:25:24.728Z,19.97
2019-04-14T04:27:57.476Z,20.90
2019-04-14T04:30:44.947Z,22.87
2019-04-14T04:33:26.308Z,20.67
2019-04-14T04:36:01.059Z,21.53
2019-04-14T04:38:33.345Z,17.20
2019-04-14T04:41:03.762Z,20.77
2019-04-14T04:43:34.112Z,17.60
2019-04-14T04:46:04.738Z,19.63
2019-04-14T04:48:34.944Z,18.23
2019-04-14T04:51:04.977Z,20.70
2019-04-14T04:53:35.407Z,21.17
2019-04-14T04:56:05.760Z,19.00
2019-04-14T04:58:35.486Z,17.87
2019-04-14T05:01:05.663Z,22.27
2019-04-14T05:03:36.360Z,16.83
2019-04-14T05:06:41.657Z,18.43
2019-04-14T05:09:29.608Z,16.17
2019-04-14T05:12:11.030Z,17.10
2019-04-14T05:14:43.371Z,18.03
2019-04-14T05:17:14.846Z,17.20
2019-04-14T05:19:49.674Z,17.10
2019-04-14T05:22:20.542Z,16.80
2019-04-14T05:24:50.891Z,16.90
2019-04-14T05:27:21.096Z,16.47
2019-04-14T05:29:53.589Z,17.30
2019-04-14T05:32:24.036Z,18.20
2019-04-14T05:34:54.343Z,15.60
2019-04-14T05:37:24.750Z,17.03
2019-04-14T05:39:54.845Z,16.00
2019-04-14T05:42:25.943Z,15.80
2019-04-14T05:44:55.837Z,16.20
2019-04-14T05:47:26.202Z,16.73
2019-04-14T05:49:57.490Z,13.63
2019-04-14T05:52:47.090Z,15.63
2019-04-14T05:55:18.384Z,14.67
2019-04-14T05:57:48.130Z,12.50
2019-04-14T06:00:19.038Z,14.07
2019-04-14T06:02:48.877Z,12.83
2019-04-14T06:05:18.951Z,14.23
2019-04-14T06:07:48.456Z,15.57
2019-04-14T06:10:17.850Z,13.40
2019-04-14T06:12:48.876Z,12.03
2019-04-14T06:15:18.451Z,13.80
2019-04-14T06:17:47.830Z,16.17
2019-04-14T06:20:17.371Z,13.77
2019-04-14T06:22:46.731Z,13.90
2019-04-14T06:25:16.367Z,13.77
2019-04-14T06:27:45.902Z,14.07
2019-04-14T06:30:20.394Z,12.43
2019-04-14T06:32:50.896Z,13.70
2019-04-14T06:35:33.950Z,15.43
2019-04-14T06:38:05.930Z,15.30
2019-04-14T06:40:45.996Z,14.10
2019-04-14T06:43:16.867Z,11.77
2019-04-14T06:45:46.732Z,13.40
2019-04-14T06:48:16.214Z,12.13
2019-04-14T06:50:46.534Z,15.33
2019-04-14T06:53:16.248Z,13.83
2019-04-14T06:55:47.363Z,14.87
2019-04-14T06:58:16.748Z,13.87
2019-04-14T07:00:46.175Z,11.67
2019-04-14T07:03:17.324Z,14.30
2019-04-14T07:05:46.840Z,13.27
2019-04-14T07:08:16.307Z,11.63
2019-04-14T07:10:45.683Z,13.27
2019-04-14T07:13:15.334Z,12.63
2019-04-14T07:15:45.146Z,12.57
2019-04-14T07:18:14.622Z,12.20
2019-04-14T07:20:44.066Z,14.33
2019-04-14T07:23:15.034Z,12.53
2019-04-14T07:25:44.406Z,12.67
2019-04-14T07:28:13.851Z,11.57
2019-04-14T07:30:44.839Z,11.53
2019-04-14T07:33:33.707Z,13.40
2019-04-14T07:36:04.771Z,12.47
2019-04-14T07:38:38.777Z,11.57
2019-04-14T07:41:09.831Z,11.47
2019-04-14T07:43:40.874Z,12.53
2019-04-14T07:46:14.912Z,12.43
2019-04-14T07:49:04.092Z,12.77
2019-04-14T07:51:42.509Z,11.07
2019-04-14T07:54:29.770Z,12.87
2019-04-14T07:57:10.125Z,11.40
2019-04-14T07:59:41.150Z,12.00
2019-04-14T08:02:12.220Z,13.20
2019-04-14T08:04:43.258Z,10.90
2019-04-14T08:07:12.617Z,11.93
2019-04-14T08:09:42.019Z,10.10
2019-04-14T08:12:11.487Z,8.80
2019-04-14T08:14:40.970Z,11.50
2019-04-14T08:17:10.673Z,9.60
2019-04-14T08:19:40.551Z,10.77
2019-04-14T08:22:09.960Z,11.03
2019-04-14T08:24:39.499Z,10.30
2019-04-14T08:27:09.112Z,10.23
2019-04-14T08:29:38.560Z,10.63
2019-04-14T08:32:10.773Z,10.90
2019-04-14T08:34:40.275Z,10.63
2019-04-14T08:37:09.675Z,10.37
2019-04-14T08:39:39.145Z,10.47
2019-04-14T08:42:14.783Z,10.17
2019-04-14T08:44:52.327Z,10.20
2019-04-14T08:47:41.304Z,9.57
2019-04-14T08:50:13.880Z,9.53
2019-04-14T08:52:45.790Z,8.87
2019-04-14T08:58:08.970Z,11.90
2019-04-14T09:00:47.580Z,10.97
2019-04-14T09:03:21.324Z,10.00
2019-04-14T09:05:52.415Z,10.53
2019-04-14T09:08:29.206Z,9.47
2019-04-14T09:11:00.306Z,8.57
2019-04-14T09:13:29.779Z,10.57
2019-04-14T09:15:59.310Z,9.73
2019-04-14T09:18:30.696Z,10.03
2019-04-14T09:21:01.688Z,9.97
2019-04-14T09:23:31.154Z,10.50
2019-04-14T09:26:02.329Z,9.23
2019-04-14T09:28:31.791Z,10.73
2019-04-14T09:31:01.170Z,10.43
2019-04-14T09:33:30.566Z,9.30
2019-04-14T09:36:00.079Z,10.97
2019-04-14T09:38:29.462Z,8.53
2019-04-14T09:40:58.907Z,9.30
2019-04-14T09:43:28.268Z,9.27
2019-04-14T09:45:57.650Z,8.90
2019-04-14T09:48:27.283Z,9.13
2019-04-14T09:51:04.574Z,8.43
2019-04-14T09:53:27.903Z,11.37
2019-04-14T09:55:59.050Z,9.17
2019-04-14T09:58:28.538Z,8.83
2019-04-14T10:00:57.927Z,8.07
2019-04-14T10:03:27.427Z,10.67
2019-04-14T10:05:56.966Z,8.90
2019-04-14T10:08:26.432Z,9.17
2019-04-14T10:10:56.067Z,11.17
2019-04-14T10:13:25.490Z,8.83
2019-04-14T10:15:56.437Z,10.13
2019-04-14T10:18:31.790Z,8.93
2019-04-14T10:21:01.390Z,9.63
2019-04-14T10:23:33.820Z,9.10
2019-04-14T10:26:03.382Z,12.33
2019-04-14T10:28:32.794Z,9.83
2019-04-14T10:31:02.245Z,9.60
2019-04-14T10:33:31.738Z,10.07
2019-04-14T10:36:01.300Z,10.33
2019-04-14T10:38:30.703Z,11.00
2019-04-14T10:41:01.067Z,10.93
2019-04-14T10:43:30.488Z,9.43
2019-04-14T10:46:00.035Z,10.30
2019-04-14T10:48:29.541Z,11.07
2019-04-14T10:50:58.989Z,10.47
2019-04-14T10:53:28.429Z,12.33
2019-04-14T10:55:57.875Z,10.53
2019-04-14T10:58:27.299Z,12.90
2019-04-14T11:00:56.916Z,12.07
2019-04-14T11:03:26.384Z,10.93
2019-04-14T11:06:00.386Z,14.23
2019-04-14T11:08:29.887Z,11.23
2019-04-14T11:10:59.316Z,10.53
2019-04-14T11:13:28.712Z,12.77
2019-04-14T11:15:58.398Z,10.63
2019-04-14T11:18:27.936Z,10.20
2019-04-14T11:20:57.350Z,11.23
2019-04-14T11:23:27.276Z,11.70
2019-04-14T11:25:56.774Z,11.63
2019-04-14T11:28:26.243Z,11.03
2019-04-14T11:30:55.890Z,12.10
2019-04-14T11:33:26.998Z,10.73
2019-04-14T11:36:14.540Z,13.37
2019-04-14T11:38:45.752Z,13.23
2019-04-14T11:41:21.437Z,11.60
2019-04-14T11:43:50.913Z,11.37
2019-04-14T11:46:20.335Z,15.00
2019-04-14T11:48:49.874Z,11.23
2019-04-14T11:51:19.366Z,15.20
2019-04-14T11:53:48.951Z,11.70
2019-04-14T11:56:18.459Z,12.67
2019-04-14T11:58:48.433Z,13.47
2019-04-14T12:01:19.928Z,13.20
2019-04-14T12:04:00.113Z,13.77
2019-04-14T12:06:49.133Z,11.90
2019-04-14T12:09:24.576Z,12.37
2019-04-14T12:11:53.991Z,13.30
2019-04-14T12:14:23.523Z,13.43
2019-04-14T12:16:52.869Z,11.53
2019-04-14T12:19:22.256Z,11.10
2019-04-14T12:21:51.754Z,13.77
2019-04-14T12:24:24.397Z,11.70
2019-04-14T12:26:53.819Z,14.13
2019-04-14T12:29:23.650Z,10.50
2019-04-14T12:31:55.265Z,11.60
2019-04-14T12:34:24.994Z,11.00
2019-04-14T12:36:54.495Z,11.40
2019-04-14T12:39:24.621Z,10.60
2019-04-14T12:42:04.800Z,14.00
2019-04-14T12:44:35.969Z,10.40
2019-04-14T12:52:58.909Z,13.97
2019-04-14T12:55:30.024Z,11.43
2019-04-14T12:58:01.214Z,11.20
2019-04-14T13:00:35.083Z,11.37
2019-04-14T13:03:04.681Z,11.70
2019-04-14T13:05:34.138Z,10.80
2019-04-14T13:08:03.637Z,13.63
2019-04-14T13:10:33.200Z,11.20
2019-04-14T13:13:02.555Z,12.90
2019-04-14T13:15:32.171Z,12.73
2019-04-14T13:18:03.230Z,13.07
2019-04-14T13:20:32.614Z,14.10
2019-04-14T13:23:01.976Z,12.77
2019-04-14T13:25:31.448Z,11.03
2019-04-14T13:28:01.033Z,12.13
2019-04-14T13:30:32.211Z,16.20
2019-04-14T13:33:03.296Z,11.63
2019-04-14T13:35:32.810Z,12.37
2019-04-14T13:38:02.351Z,12.87
2019-04-14T13:40:31.817Z,12.57
2019-04-14T13:43:02.955Z,12.40
2019-04-14T13:45:32.392Z,11.53
2019-04-14T13:48:02.132Z,13.20
2019-04-14T13:50:31.598Z,10.87
2019-04-14T13:53:01.073Z,14.13
2019-04-14T13:55:30.535Z,11.60
2019-04-14T13:57:59.905Z,11.43
2019-04-14T14:00:30.990Z,12.43
2019-04-14T14:03:00.341Z,12.00
2019-04-14T14:05:29.832Z,11.80
2019-04-14T14:07:59.260Z,14.77
2019-04-14T14:10:29.867Z,10.77
2019-04-14T14:13:07.269Z,12.27
2019-04-14T14:15:41.536Z,13.60
2019-04-14T14:18:29.038Z,11.47
2019-04-14T14:21:03.225Z,11.30
2019-04-14T14:23:34.465Z,13.00
2019-04-14T14:26:08.572Z,11.27
2019-04-14T14:28:38.719Z,14.20
2019-04-14T14:31:08.374Z,10.73
2019-04-14T14:33:50.383Z,11.93
2019-04-14T14:36:19.741Z,13.17
2019-04-14T14:38:49.096Z,10.70
2019-04-14T14:41:18.635Z,12.73
2019-04-14T14:43:48.084Z,13.47
2019-04-14T14:46:28.127Z,13.87
2019-04-14T14:49:04.727Z,13.10
2019-04-14T14:51:52.301Z,17.63
2019-04-14T14:54:21.880Z,14.93
2019-04-14T14:56:51.578Z,12.17
2019-04-14T14:59:21.128Z,12.87
2019-04-14T15:01:50.700Z,12.70
2019-04-14T15:04:20.548Z,12.93
2019-04-14T15:06:49.973Z,14.93
2019-04-14T15:09:19.430Z,12.17
2019-04-14T15:11:48.779Z,13.37
2019-04-14T15:14:18.375Z,14.83
2019-04-14T15:16:47.971Z,13.20
2019-04-14T15:19:17.687Z,10.77
2019-04-14T15:21:47.119Z,11.47
2019-04-14T15:24:16.662Z,11.40
2019-04-14T15:26:47.328Z,12.63
2019-04-14T15:29:16.930Z,10.13
2019-04-14T15:32:01.163Z,11.30
2019-04-14T15:34:30.734Z,11.40
2019-04-14T15:37:03.291Z,10.03
2019-04-14T15:39:32.877Z,10.70
2019-04-14T15:42:05.275Z,11.73
2019-04-14T15:44:36.399Z,12.03
2019-04-14T15:47:07.755Z,11.67
2019-04-14T15:49:37.223Z,12.63
2019-04-14T15:52:06.684Z,11.67
2019-04-14T15:54:41.801Z,11.57
2019-04-14T15:57:30.975Z,11.77
2019-04-14T16:00:02.139Z,12.00
2019-04-14T16:02:36.062Z,12.87
2019-04-14T16:05:14.239Z,12.37
2019-04-14T16:07:48.258Z,13.77
2019-04-14T16:10:37.204Z,12.53
2019-04-14T16:13:12.876Z,14.07
2019-04-14T16:15:45.427Z,14.30
2019-04-14T16:18:28.680Z,14.37
2019-04-14T16:20:58.323Z,11.97
2019-04-14T16:23:27.824Z,11.97
2019-04-14T16:26:02.066Z,14.03
2019-04-14T16:28:33.158Z,12.70
2019-04-14T16:31:06.875Z,13.00
2019-04-14T16:33:54.524Z,14.57
2019-04-14T16:36:24.080Z,15.20
2019-04-14T16:38:53.622Z,15.27
2019-04-14T16:41:23.280Z,14.00
2019-04-14T16:43:52.654Z,13.87
2019-04-14T16:46:22.270Z,16.20
2019-04-14T16:48:51.721Z,14.93
2019-04-14T16:51:34.740Z,14.00
2019-04-14T16:54:05.948Z,12.00
2019-04-14T16:56:39.869Z,13.77
2019-04-14T16:59:10.299Z,11.60
2019-04-14T17:01:41.387Z,12.90
2019-04-14T17:04:10.835Z,13.57
2019-04-14T17:06:40.361Z,13.43
2019-04-14T17:09:10.723Z,13.47
2019-04-14T17:11:40.126Z,16.70
2019-04-14T17:14:19.727Z,17.37
2019-04-14T17:16:53.594Z,14.33
2019-04-14T17:19:24.583Z,14.30
2019-04-14T17:21:55.782Z,13.47
2019-04-14T17:24:35.484Z,18.00
2019-04-14T17:27:09.228Z,11.67
2019-04-14T17:29:40.284Z,11.63
2019-04-14T17:32:11.304Z,11.33
2019-04-14T17:34:42.291Z,10.03
2019-04-14T17:37:29.334Z,9.60
2019-04-14T17:40:03.116Z,9.73
2019-04-14T17:42:43.020Z,10.17
2019-04-14T17:45:16.902Z,10.70
2019-04-14T17:47:51.700Z,10.60
2019-04-14T17:50:40.099Z,12.70
2019-04-14T17:53:33.548Z,10.50
2019-04-14T17:56:10.644Z,12.97
2019-04-14T17:58:44.478Z,11.67
2019-04-14T18:01:32.159Z,11.20
2019-04-14T18:04:09.384Z,11.53
2019-04-14T18:06:43.476Z,10.73
2019-04-14T18:09:30.895Z,12.80
2019-04-14T18:12:01.964Z,10.30
2019-04-14T18:14:45.326Z,11.77
2019-04-14T18:17:34.359Z,15.87
2019-04-14T18:20:19.876Z,11.23
2019-04-14T18:22:49.304Z,12.80
2019-04-14T18:25:18.722Z,12.00
2019-04-14T18:27:52.776Z,13.73
2019-04-14T18:30:23.828Z,11.53
2019-04-14T18:33:00.832Z,11.23
2019-04-14T18:35:41.696Z,13.67
2019-04-14T18:38:15.843Z,11.67
2019-04-14T18:40:48.344Z,12.07
2019-04-14T18:46:15.461Z,11.60
2019-04-14T18:48:49.478Z,12.63
2019-04-14T18:51:23.215Z,13.70
2019-04-14T18:53:54.229Z,13.97
2019-04-14T18:56:28.082Z,12.43
2019-04-14T18:59:15.333Z,13.30
2019-04-14T19:01:48.725Z,13.17
2019-04-14T19:04:18.524Z,14.37
2019-04-14T19:06:48.340Z,12.97
2019-04-14T19:09:18.149Z,14.17
2019-04-14T19:12:05.676Z,15.27
2019-04-14T19:14:37.026Z,12.87
2019-04-14T19:17:12.915Z,14.80
2019-04-14T19:19:44.104Z,17.23
2019-04-14T19:22:13.712Z,14.60
2019-04-14T19:24:43.261Z,15.00
2019-04-14T19:27:12.662Z,16.33
2019-04-14T19:29:42.466Z,13.20
2019-04-14T19:32:11.993Z,16.83
2019-04-14T19:34:41.387Z,14.27
2019-04-14T19:37:10.756Z,15.77
2019-04-14T19:39:40.224Z,14.00
2019-04-14T19:42:09.828Z,16.40
2019-04-14T19:44:39.291Z,14.17
2019-04-14T19:47:08.683Z,15.57
2019-04-14T19:49:38.073Z,16.43
2019-04-14T19:52:07.680Z,15.00
2019-04-14T19:54:37.074Z,17.10
2019-04-14T19:57:06.853Z,18.03
2019-04-14T19:59:36.239Z,16.03
2019-04-14T20:02:05.772Z,17.00
2019-04-14T20:04:35.505Z,15.80
2019-04-14T20:07:05.020Z,15.37
2019-04-14T20:09:34.484Z,14.57
2019-04-14T20:12:04.041Z,15.80
2019-04-14T20:14:33.856Z,16.07
2019-04-14T20:17:25.181Z,16.30
2019-04-14T20:19:56.264Z,15.17
2019-04-14T20:22:30.014Z,16.83
2019-04-14T20:25:38.364Z,14.57
2019-04-14T20:31:18.157Z,14.77
2019-04-14T20:33:48.203Z,15.53
2019-04-14T20:36:17.825Z,18.00
2019-04-14T20:38:47.224Z,16.73
2019-04-14T20:41:16.831Z,14.87
2019-04-14T20:43:46.287Z,17.50
2019-04-14T20:46:15.670Z,16.33
2019-04-14T20:48:45.055Z,14.97
2019-04-14T20:51:14.446Z,16.53
2019-04-14T20:53:43.828Z,16.93
2019-04-14T20:56:16.764Z,18.63
2019-04-14T20:58:46.295Z,16.87
2019-04-14T21:01:16.530Z,19.43
2019-04-14T21:03:56.803Z,17.23
2019-04-14T21:06:36.948Z,20.03
2019-04-14T21:09:17.574Z,19.33
2019-04-14T21:12:01.008Z,17.17
2019-04-14T21:14:44.090Z,17.77
2019-04-14T21:17:15.121Z,20.43
2019-04-14T21:19:58.198Z,19.30
2019-04-14T21:22:42.027Z,19.70
2019-04-14T21:25:21.987Z,17.20
2019-04-14T21:27:53.902Z,17.40
2019-04-14T21:30:28.020Z,19.33
2019-04-14T21:33:16.936Z,18.13
2019-04-14T21:36:04.615Z,17.57
2019-04-14T21:38:44.897Z,20.47
2019-04-14T21:41:19.492Z,19.97
2019-04-14T21:43:48.887Z,19.43
2019-04-14T21:46:18.363Z,22.33
2019-04-14T21:48:47.759Z,19.27
2019-04-14T21:51:17.215Z,20.57
2019-04-14T21:53:47.979Z,20.27
2019-04-14T21:56:18.867Z,21.47
2019-04-14T21:58:50.062Z,22.90
2019-04-14T22:01:40.251Z,21.00
2019-04-14T22:04:27.924Z,22.00
2019-04-14T22:06:59.041Z,19.07
2019-04-14T22:09:30.880Z,21.73
2019-04-14T22:12:02.135Z,19.80
2019-04-14T22:14:31.606Z,20.60
2019-04-14T22:17:01.311Z,18.97
2019-04-14T22:19:30.963Z,24.10
2019-04-14T22:22:00.419Z,20.40
2019-04-14T22:24:32.820Z,18.40
2019-04-14T22:27:02.195Z,23.40
2019-04-14T22:29:31.664Z,21.27
2019-04-14T22:32:01.107Z,21.40
2019-04-14T22:34:30.959Z,22.40
2019-04-14T22:37:00.467Z,20.10
2019-04-14T22:39:29.915Z,22.00
2019-04-14T22:41:59.362Z,28.33
2019-04-14T22:44:28.963Z,23.03
2019-04-14T22:46:58.696Z,24.10
2019-04-14T22:49:28.158Z,22.80
2019-04-14T22:51:57.551Z,20.63
2019-04-14T22:54:26.953Z,20.60
2019-04-14T22:57:09.062Z,23.00
2019-04-14T22:59:38.627Z,23.57
2019-04-14T23:02:15.527Z,21.33
2019-04-14T23:04:47.047Z,22.37
2019-04-14T23:07:25.534Z,23.87
2019-04-14T23:09:59.487Z,21.90
2019-04-14T23:12:33.095Z,24.77
2019-04-14T23:15:04.658Z,21.10
2019-04-14T23:17:38.808Z,24.23
2019-04-14T23:20:11.458Z,25.73
2019-04-14T23:22:57.756Z,24.43
2019-04-14T23:25:27.185Z,21.60
2019-04-14T23:27:56.734Z,26.10
2019-04-14T23:30:26.234Z,20.80
2019-04-14T23:32:55.796Z,23.27
2019-04-14T23:35:25.416Z,21.57
2019-04-14T23:37:54.769Z,18.90
2019-04-14T23:40:24.159Z,22.03
2019-04-14T23:42:53.506Z,19.40
2019-04-14T23:45:23.079Z,21.63
2019-04-14T23:47:52.435Z,19.00
2019-04-14T23:50:21.985Z,20.97
2019-04-14T23:52:53.016Z,19.87
2019-04-14T23:55:22.711Z,17.33
2019-04-14T23:57:52.156Z,20.60
